createdAt,value
2018-04-02T00:00:57.956Z,24.90
2018-04-02T00:02:19.201Z,23.60
2018-04-02T00:03:19.822Z,24.60
2018-04-02T00:04:40.743Z,23.70
2018-04-02T00:05:41.023Z,23.40
2018-04-02T00:06:40.695Z,23.80
2018-04-02T00:07:41.293Z,23.10
2018-04-02T00:08:40.504Z,21.70
2018-04-02T00:09:41.391Z,23.00
2018-04-02T00:10:41.072Z,22.70
2018-04-02T00:11:41.082Z,22.70
2018-04-02T00:12:41.622Z,22.30
2018-04-02T00:13:42.891Z,22.40
2018-04-02T00:14:42.695Z,21.50
2018-04-02T00:15:43.998Z,20.30
2018-04-02T00:16:42.238Z,21.70
2018-04-02T00:17:43.713Z,21.70
2018-04-02T00:18:43.677Z,20.90
2018-04-02T00:19:42.160Z,21.20
2018-04-02T00:20:41.622Z,21.90
2018-04-02T00:21:41.574Z,22.40
2018-04-02T00:22:43.828Z,21.90
2018-04-02T00:23:43.815Z,22.40
2018-04-02T00:24:45.649Z,22.70
2018-04-02T00:25:41.775Z,41.20
2018-04-02T00:26:44.944Z,118.30
2018-04-02T00:27:44.428Z,44.40
2018-04-02T00:28:44.145Z,30.30
2018-04-02T00:29:43.298Z,24.80
2018-04-02T00:30:43.247Z,24.10
2018-04-02T00:31:43.712Z,23.20
2018-04-02T00:32:43.996Z,24.80
2018-04-02T00:33:43.320Z,24.00
2018-04-02T00:34:43.879Z,24.20
2018-04-02T00:36:05.729Z,23.70
2018-04-02T00:37:07.199Z,23.40
2018-04-02T00:38:05.466Z,24.10
2018-04-02T00:39:04.704Z,23.20
2018-04-02T00:40:04.259Z,23.60
2018-04-02T00:41:04.036Z,21.50
2018-04-02T00:42:08.142Z,22.30
2018-04-02T00:43:07.194Z,20.50
2018-04-02T00:44:05.105Z,20.80
2018-04-02T00:45:05.166Z,21.50
2018-04-02T00:46:06.353Z,21.30
2018-04-02T00:47:08.482Z,19.30
2018-04-02T00:48:07.123Z,21.80
2018-04-02T00:49:07.107Z,21.10
2018-04-02T00:50:05.237Z,21.00
2018-04-02T00:51:05.380Z,20.80
2018-04-02T00:52:07.438Z,22.00
2018-04-02T00:53:30.726Z,19.70
2018-04-02T00:54:29.445Z,20.30
2018-04-02T00:55:29.671Z,20.40
2018-04-02T00:56:29.497Z,20.00
2018-04-02T00:57:31.437Z,20.00
2018-04-02T00:58:30.650Z,18.90
2018-04-02T00:59:29.766Z,20.10
2018-04-02T01:00:30.364Z,19.80
2018-04-02T01:01:29.299Z,20.20
2018-04-02T01:02:28.056Z,19.60
2018-04-02T01:03:52.865Z,19.00
2018-04-02T01:04:53.837Z,20.60
2018-04-02T01:06:18.640Z,20.40
2018-04-02T01:07:21.970Z,20.40
2018-04-02T01:08:23.733Z,20.40
2018-04-02T01:09:19.420Z,19.70
2018-04-02T01:10:17.225Z,19.80
2018-04-02T01:11:17.672Z,20.50
2018-04-02T01:12:17.176Z,18.90
2018-04-02T01:13:16.057Z,19.70
2018-04-02T01:14:18.032Z,20.50
2018-04-02T01:15:18.527Z,20.10
2018-04-02T01:16:17.995Z,19.90
2018-04-02T01:17:18.876Z,19.40
2018-04-02T01:18:18.621Z,18.90
2018-04-02T01:19:18.017Z,18.00
2018-04-02T01:20:18.752Z,18.00
2018-04-02T01:21:18.198Z,17.90
2018-04-02T01:22:19.009Z,17.50
2018-04-02T01:23:19.626Z,16.90
2018-04-02T01:24:42.629Z,18.40
2018-04-02T01:25:40.802Z,18.10
2018-04-02T01:26:41.737Z,16.10
2018-04-02T01:27:41.224Z,17.80
2018-04-02T01:28:41.795Z,18.00
2018-04-02T01:29:42.948Z,17.70
2018-04-02T01:30:42.533Z,18.80
2018-04-02T01:31:42.007Z,18.40
2018-04-02T01:32:41.780Z,17.50
2018-04-02T01:33:41.583Z,18.30
2018-04-02T01:34:39.179Z,18.50
2018-04-02T01:35:41.550Z,18.40
2018-04-02T01:36:42.650Z,18.30
2018-04-02T01:37:42.311Z,18.00
2018-04-02T01:39:05.606Z,18.50
2018-04-02T01:40:03.735Z,17.70
2018-04-02T01:41:06.326Z,17.10
2018-04-02T01:42:06.085Z,18.10
2018-04-02T01:43:28.865Z,17.50
2018-04-02T01:44:29.497Z,17.60
2018-04-02T01:46:15.402Z,18.20
2018-04-02T01:47:14.254Z,17.00
2018-04-02T01:48:15.609Z,17.50
2018-04-02T01:49:16.267Z,17.60
2018-04-02T01:50:38.961Z,18.30
2018-04-02T01:51:43.078Z,17.20
2018-04-02T01:52:43.528Z,18.40
2018-04-02T01:53:42.018Z,18.20
2018-04-02T01:54:41.565Z,17.40
2018-04-02T01:55:40.692Z,18.10
2018-04-02T01:56:43.907Z,17.80
2018-04-02T01:57:41.001Z,17.10
2018-04-02T01:58:41.347Z,18.10
2018-04-02T01:59:40.477Z,17.30
2018-04-02T02:00:40.824Z,17.50
2018-04-02T02:01:41.585Z,17.90
2018-04-02T02:02:42.659Z,19.30
2018-04-02T02:03:41.496Z,19.10
2018-04-02T02:04:42.456Z,18.90
2018-04-02T02:05:42.993Z,19.10
2018-04-02T02:06:40.080Z,176.50
2018-04-02T02:07:44.118Z,62.70
2018-04-02T02:08:40.590Z,57.20
2018-04-02T02:09:41.469Z,43.70
2018-04-02T02:10:40.137Z,30.60
2018-04-02T02:11:41.579Z,38.70
2018-04-02T02:12:42.395Z,30.90
2018-04-02T02:13:41.906Z,21.30
2018-04-02T02:14:41.262Z,20.80
2018-04-02T02:15:41.040Z,19.60
2018-04-02T02:16:41.559Z,19.40
2018-04-02T02:17:39.293Z,19.20
2018-04-02T02:18:41.098Z,19.60
2018-04-02T02:19:39.319Z,18.60
2018-04-02T02:20:42.178Z,20.20
2018-04-02T02:21:41.067Z,19.90
2018-04-02T02:22:40.021Z,20.00
2018-04-02T02:23:41.846Z,19.50
2018-04-02T02:24:40.711Z,20.00
2018-04-02T02:25:41.014Z,20.40
2018-04-02T02:26:40.403Z,19.70
2018-04-02T02:27:40.630Z,20.10
2018-04-02T02:28:41.484Z,18.60
2018-04-02T02:30:04.217Z,19.70
2018-04-02T02:31:05.308Z,20.60
2018-04-02T02:32:05.497Z,21.20
2018-04-02T02:33:05.821Z,20.20
2018-04-02T02:34:05.474Z,20.50
2018-04-02T02:35:06.184Z,20.90
2018-04-02T02:36:05.292Z,22.30
2018-04-02T02:37:06.075Z,20.90
2018-04-02T02:38:06.005Z,21.40
2018-04-02T02:39:03.956Z,21.50
2018-04-02T02:40:06.107Z,21.50
2018-04-02T02:41:05.120Z,21.40
2018-04-02T02:42:26.976Z,22.10
2018-04-02T02:43:28.582Z,21.70
2018-04-02T02:44:26.677Z,22.00
2018-04-02T02:45:29.220Z,21.20
2018-04-02T02:46:27.775Z,21.30
2018-04-02T02:47:27.628Z,23.00
2018-04-02T02:48:50.947Z,21.60
2018-04-02T02:49:49.646Z,22.20
2018-04-02T02:50:51.857Z,21.90
2018-04-02T02:51:51.230Z,22.60
2018-04-02T02:53:12.375Z,22.00
2018-04-02T02:54:12.866Z,22.40
2018-04-02T02:55:11.969Z,22.30
2018-04-02T02:56:37.854Z,22.30
2018-04-02T02:57:36.829Z,23.70
2018-04-02T02:58:37.992Z,22.40
2018-04-02T02:59:36.766Z,23.90
2018-04-02T03:01:01.044Z,23.20
2018-04-02T03:02:03.508Z,23.20
2018-04-02T03:03:23.494Z,23.80
2018-04-02T03:04:24.631Z,22.60
2018-04-02T03:05:24.651Z,24.00
2018-04-02T03:06:25.398Z,23.30
2018-04-02T03:07:24.631Z,25.50
2018-04-02T03:08:24.624Z,25.10
2018-04-02T03:09:24.152Z,24.90
2018-04-02T03:10:23.870Z,24.30
2018-04-02T03:11:23.767Z,25.70
2018-04-02T03:12:24.257Z,25.50
2018-04-02T03:13:43.372Z,25.60
2018-04-02T03:14:44.230Z,25.70
2018-04-02T03:16:04.443Z,26.10
2018-04-02T03:17:05.033Z,24.90
2018-04-02T03:18:05.397Z,26.70
2018-04-02T03:19:24.986Z,25.60
2018-04-02T03:20:25.345Z,25.90
2018-04-02T03:21:26.320Z,25.50
2018-04-02T03:22:25.655Z,24.00
2018-04-02T03:23:47.156Z,26.40
2018-04-02T03:24:47.335Z,26.10
2018-04-02T03:25:47.149Z,24.30
2018-04-02T03:26:47.892Z,23.50
2018-04-02T03:27:47.549Z,24.00
2018-04-02T03:28:46.984Z,24.80
2018-04-02T03:29:47.728Z,25.30
2018-04-02T03:31:07.838Z,23.20
2018-04-02T03:32:08.418Z,24.90
2018-04-02T03:33:10.966Z,23.70
2018-04-02T03:34:08.284Z,24.50
2018-04-02T03:35:07.641Z,24.40
2018-04-02T03:36:07.756Z,24.30
2018-04-02T03:37:08.259Z,23.80
2018-04-02T03:38:28.985Z,24.80
2018-04-02T03:39:29.784Z,24.80
2018-04-02T03:40:29.335Z,25.10
2018-04-02T03:41:28.791Z,24.30
2018-04-02T03:42:29.083Z,24.40
2018-04-02T03:43:29.569Z,25.40
2018-04-02T03:44:28.819Z,24.50
2018-04-02T03:45:29.139Z,24.40
2018-04-02T03:46:50.675Z,24.30
2018-04-02T03:47:50.930Z,24.20
2018-04-02T03:48:51.718Z,23.70
2018-04-02T03:49:51.082Z,24.80
2018-04-02T03:50:51.710Z,23.30
2018-04-02T03:51:51.174Z,25.20
2018-04-02T03:52:50.918Z,23.40
2018-04-02T03:54:32.942Z,23.20
2018-04-02T03:55:33.573Z,24.50
2018-04-02T03:56:33.360Z,25.00
2018-04-02T03:57:34.177Z,24.90
2018-04-02T03:58:33.828Z,23.90
2018-04-02T03:59:33.132Z,24.70
2018-04-02T04:00:33.650Z,24.40
2018-04-02T04:01:32.848Z,23.60
2018-04-02T04:02:33.149Z,24.00
2018-04-02T04:03:33.500Z,24.40
2018-04-02T04:04:55.312Z,23.40
2018-04-02T04:05:55.699Z,23.80
2018-04-02T04:06:56.352Z,24.10
2018-04-02T04:07:56.265Z,24.10
2018-04-02T04:09:17.914Z,24.40
2018-04-02T04:10:17.766Z,23.90
2018-04-02T04:11:17.341Z,23.90
2018-04-02T04:12:16.887Z,23.40
2018-04-02T04:13:17.542Z,24.00
2018-04-02T04:14:16.958Z,23.80
2018-04-02T04:15:17.419Z,24.30
2018-04-02T04:16:16.776Z,23.50
2018-04-02T04:17:17.138Z,22.80
2018-04-02T04:18:16.940Z,23.70
2018-04-02T04:19:17.249Z,23.40
2018-04-02T04:20:17.838Z,23.70
2018-04-02T04:21:17.206Z,22.70
2018-04-02T04:22:37.251Z,22.90
2018-04-02T04:23:37.841Z,23.30
2018-04-02T04:24:59.563Z,22.80
2018-04-02T04:26:00.366Z,22.30
2018-04-02T04:26:59.997Z,24.10
2018-04-02T04:28:00.357Z,24.30
2018-04-02T04:29:00.187Z,23.20
2018-04-02T04:30:00.399Z,22.70
2018-04-02T04:31:00.035Z,24.20
2018-04-02T04:32:00.243Z,24.40
2018-04-02T04:33:00.106Z,24.20
2018-04-02T04:35:01.284Z,23.90
2018-04-02T04:36:02.167Z,24.50
2018-04-02T04:37:01.500Z,24.50
2018-04-02T04:38:22.827Z,25.00
2018-04-02T04:39:23.638Z,23.10
2018-04-02T04:40:23.096Z,24.50
2018-04-02T04:41:22.667Z,23.80
2018-04-02T04:42:43.558Z,25.50
2018-04-02T04:44:05.218Z,24.90
2018-04-02T04:45:06.021Z,24.40
2018-04-02T04:46:05.456Z,25.70
2018-04-02T04:47:06.286Z,23.90
2018-04-02T04:48:05.897Z,24.70
2018-04-02T04:49:06.527Z,24.10
2018-04-02T04:50:06.266Z,24.50
2018-04-02T04:51:05.875Z,24.60
2018-04-02T04:52:05.446Z,23.90
2018-04-02T04:53:06.422Z,25.20
2018-04-02T04:54:06.316Z,24.70
2018-04-02T04:55:05.713Z,23.70
2018-04-02T04:56:27.855Z,24.50
2018-04-02T04:57:28.098Z,24.20
2018-04-02T04:58:27.703Z,25.20
2018-04-02T04:59:49.676Z,23.60
2018-04-02T05:00:50.455Z,25.30
2018-04-02T05:01:50.060Z,25.00
2018-04-02T05:02:50.443Z,25.00
2018-04-02T05:03:50.175Z,24.80
2018-04-02T05:04:49.577Z,24.60
2018-04-02T05:05:50.067Z,24.90
2018-04-02T05:06:49.858Z,25.30
2018-04-02T05:07:50.181Z,25.30
2018-04-02T05:08:49.586Z,25.00
2018-04-02T05:09:50.324Z,26.80
2018-04-02T05:10:49.565Z,25.70
2018-04-02T05:11:50.357Z,25.40
2018-04-02T05:12:49.691Z,24.70
2018-04-02T05:13:50.415Z,25.00
2018-04-02T05:15:10.610Z,24.60
2018-04-02T05:16:11.376Z,24.30
2018-04-02T05:17:11.000Z,25.10
2018-04-02T05:18:11.254Z,24.90
2018-04-02T05:19:10.428Z,24.50
2018-04-02T05:20:11.461Z,24.90
2018-04-02T05:21:12.939Z,24.60
2018-04-02T05:22:37.064Z,25.40
2018-04-02T05:23:35.412Z,26.70
2018-04-02T05:24:34.376Z,24.50
2018-04-02T05:25:34.081Z,26.10
2018-04-02T05:26:33.677Z,24.70
2018-04-02T05:27:55.934Z,26.10
2018-04-02T05:28:56.296Z,26.60
2018-04-02T05:29:55.797Z,26.50
2018-04-02T05:30:56.271Z,26.80
2018-04-02T05:31:56.689Z,25.70
2018-04-02T05:32:56.658Z,25.90
2018-04-02T05:33:55.959Z,24.90
2018-04-02T05:34:57.222Z,25.10
2018-04-02T05:35:55.632Z,25.90
2018-04-02T05:36:56.032Z,25.90
2018-04-02T05:37:57.146Z,25.60
2018-04-02T05:38:56.567Z,25.20
2018-04-02T05:39:56.463Z,25.40
2018-04-02T05:40:55.946Z,26.20
2018-04-02T05:42:18.660Z,27.10
2018-04-02T05:43:19.380Z,25.90
2018-04-02T05:44:18.816Z,25.60
2018-04-02T05:45:19.013Z,25.50
2018-04-02T05:46:18.561Z,25.00
2018-04-02T05:47:19.089Z,25.70
2018-04-02T05:48:18.343Z,25.70
2018-04-02T05:49:18.819Z,25.40
2018-04-02T05:50:18.751Z,26.20
2018-04-02T05:51:40.268Z,26.70
2018-04-02T05:52:41.004Z,27.00
2018-04-02T05:53:40.925Z,25.20
2018-04-02T05:54:40.697Z,26.50
2018-04-02T05:55:40.669Z,26.90
2018-04-02T05:57:01.582Z,27.50
2018-04-02T05:58:01.935Z,24.90
2018-04-02T05:59:44.024Z,25.10
2018-04-02T06:00:44.792Z,26.50
2018-04-02T06:01:44.188Z,26.60
2018-04-02T06:02:45.010Z,26.00
2018-04-02T06:03:45.540Z,26.60
2018-04-02T06:04:44.131Z,26.20
2018-04-02T06:05:44.500Z,25.40
2018-04-02T06:06:43.885Z,25.70
2018-04-02T06:07:44.559Z,26.10
2018-04-02T06:08:44.078Z,26.70
2018-04-02T06:09:44.387Z,25.90
2018-04-02T06:11:05.482Z,26.30
2018-04-02T06:12:06.255Z,24.90
2018-04-02T06:13:05.992Z,26.40
2018-04-02T06:14:05.578Z,26.10
2018-04-02T06:15:27.768Z,26.30
2018-04-02T06:16:28.254Z,26.30
2018-04-02T06:17:27.890Z,26.10
2018-04-02T06:18:28.380Z,26.80
2018-04-02T06:19:27.925Z,26.20
2018-04-02T06:20:28.671Z,26.00
2018-04-02T06:21:28.084Z,26.60
2018-04-02T06:22:28.577Z,26.00
2018-04-02T06:23:28.093Z,25.90
2018-04-02T06:24:28.524Z,24.40
2018-04-02T06:25:48.708Z,24.80
2018-04-02T06:26:49.456Z,25.60
2018-04-02T06:27:49.410Z,25.10
2018-04-02T06:28:49.160Z,25.90
2018-04-02T06:29:49.120Z,26.50
2018-04-02T06:30:48.882Z,26.70
2018-04-02T06:31:49.786Z,25.90
2018-04-02T06:32:49.169Z,26.70
2018-04-02T06:34:09.660Z,26.00
2018-04-02T06:35:31.698Z,26.20
2018-04-02T06:36:53.740Z,27.40
2018-04-02T06:37:54.182Z,26.70
2018-04-02T06:38:54.805Z,25.90
2018-04-02T06:39:54.214Z,25.80
2018-04-02T06:40:53.770Z,26.20
2018-04-02T06:41:54.333Z,25.60
2018-04-02T06:42:53.672Z,25.90
2018-04-02T06:43:54.401Z,25.60
2018-04-02T06:44:53.936Z,25.10
2018-04-02T06:45:54.805Z,25.70
2018-04-02T06:46:54.446Z,25.40
2018-04-02T06:47:53.869Z,27.10
2018-04-02T06:48:54.740Z,26.60
2018-04-02T06:49:55.212Z,26.00
2018-04-02T06:50:53.845Z,26.80
2018-04-02T06:51:54.677Z,26.40
2018-04-02T06:52:54.647Z,26.50
2018-04-02T06:53:54.366Z,25.60
2018-04-02T06:54:54.201Z,26.80
2018-04-02T06:55:53.624Z,25.60
2018-04-02T06:56:54.487Z,25.10
2018-04-02T06:57:54.395Z,25.80
2018-04-02T06:58:54.059Z,27.10
2018-04-02T07:00:16.185Z,27.40
2018-04-02T07:01:16.615Z,26.20
2018-04-02T07:02:16.648Z,27.20
2018-04-02T07:03:16.454Z,26.70
2018-04-02T07:04:17.231Z,27.80
2018-04-02T07:05:17.113Z,28.80
2018-04-02T07:06:17.041Z,28.30
2018-04-02T07:07:17.002Z,29.00
2018-04-02T07:08:16.328Z,29.20
2018-04-02T07:09:16.719Z,30.00
2018-04-02T07:10:17.113Z,32.80
2018-04-02T07:11:19.905Z,34.10
2018-04-02T07:12:16.770Z,34.30
2018-04-02T07:13:16.579Z,34.70
2018-04-02T07:14:16.067Z,35.20
2018-04-02T07:15:37.499Z,38.30
2018-04-02T07:16:37.961Z,38.20
2018-04-02T07:17:38.964Z,38.50
2018-04-02T07:18:37.697Z,40.50
2018-04-02T07:19:38.478Z,39.90
2018-04-02T07:20:38.334Z,38.80
2018-04-02T07:21:37.888Z,41.10
2018-04-02T07:22:38.538Z,39.90
2018-04-02T07:23:38.032Z,40.90
2018-04-02T07:24:38.440Z,41.90
2018-04-02T07:25:37.893Z,39.50
2018-04-02T07:26:38.582Z,42.20
2018-04-02T07:27:59.564Z,42.30
2018-04-02T07:29:21.859Z,42.60
2018-04-02T07:30:22.323Z,43.80
2018-04-02T07:31:22.132Z,43.60
2018-04-02T07:32:21.919Z,43.10
2018-04-02T07:33:21.756Z,44.00
2018-04-02T07:34:22.653Z,45.20
2018-04-02T07:35:22.675Z,47.60
2018-04-02T07:36:22.756Z,46.10
2018-04-02T07:37:22.491Z,45.00
2018-04-02T07:38:22.362Z,44.20
2018-04-02T07:39:22.043Z,47.40
2018-04-02T07:40:21.696Z,46.40
2018-04-02T07:41:43.795Z,47.30
2018-04-02T07:42:44.837Z,47.70
2018-04-02T07:43:44.882Z,49.30
2018-04-02T07:44:44.481Z,48.30
2018-04-02T07:45:43.967Z,49.10
2018-04-02T07:46:43.620Z,50.30
2018-04-02T07:47:44.079Z,48.70
2018-04-02T07:48:43.770Z,49.40
2018-04-02T07:49:44.770Z,50.00
2018-04-02T07:50:44.775Z,51.10
2018-04-02T07:51:44.440Z,50.70
2018-04-02T07:52:43.907Z,50.60
2018-04-02T07:53:44.968Z,50.80
2018-04-02T07:55:04.869Z,51.40
2018-04-02T07:56:04.331Z,50.50
2018-04-02T07:57:05.375Z,53.70
2018-04-02T07:58:05.150Z,51.70
2018-04-02T07:59:04.745Z,54.60
2018-04-02T08:00:05.200Z,54.00
2018-04-02T08:01:26.018Z,54.70
2018-04-02T08:02:26.699Z,55.20
2018-04-02T08:03:47.694Z,53.10
2018-04-02T08:04:48.634Z,53.40
2018-04-02T08:05:48.364Z,52.00
2018-04-02T08:06:48.127Z,54.00
2018-04-02T08:07:48.041Z,51.90
2018-04-02T08:08:47.940Z,54.60
2018-04-02T08:09:48.836Z,53.50
2018-04-02T08:10:48.649Z,53.60
2018-04-02T08:11:49.089Z,55.10
2018-04-02T08:12:47.806Z,53.60
2018-04-02T08:13:48.413Z,54.40
2018-04-02T08:14:48.312Z,53.40
2018-04-02T08:15:48.005Z,52.80
2018-04-02T08:16:47.607Z,53.50
2018-04-02T08:17:48.088Z,55.70
2018-04-02T08:18:47.914Z,54.70
2018-04-02T08:19:48.811Z,53.50
2018-04-02T08:20:48.487Z,55.20
2018-04-02T08:21:48.420Z,53.50
2018-04-02T08:23:08.554Z,52.20
2018-04-02T08:24:30.766Z,53.20
2018-04-02T08:25:31.963Z,56.00
2018-04-02T08:26:31.363Z,55.70
2018-04-02T08:27:30.727Z,55.50
2018-04-02T08:28:31.714Z,55.70
2018-04-02T08:29:31.737Z,55.60
2018-04-02T08:30:31.818Z,55.50
2018-04-02T08:31:31.414Z,57.00
2018-04-02T08:32:51.737Z,54.00
2018-04-02T08:33:52.351Z,56.10
2018-04-02T08:34:52.311Z,55.00
2018-04-02T08:35:52.305Z,53.50
2018-04-02T08:36:52.256Z,52.30
2018-04-02T08:37:51.801Z,53.40
2018-04-02T08:38:52.829Z,53.20
2018-04-02T08:39:52.679Z,54.30
2018-04-02T08:40:52.575Z,54.80
2018-04-02T08:41:52.444Z,53.60
2018-04-02T08:43:33.035Z,54.20
2018-04-02T08:44:33.943Z,55.70
2018-04-02T08:45:33.430Z,54.20
2018-04-02T08:46:33.490Z,55.80
2018-04-02T08:47:33.479Z,55.20
2018-04-02T08:48:33.375Z,56.70
2018-04-02T08:49:54.325Z,54.50
2018-04-02T08:50:54.880Z,55.90
2018-04-02T08:51:54.701Z,55.70
2018-04-02T08:52:55.628Z,55.40
2018-04-02T08:54:16.499Z,55.70
2018-04-02T08:55:38.617Z,57.70
2018-04-02T08:56:39.565Z,58.10
2018-04-02T08:57:39.095Z,56.70
2018-04-02T08:58:38.898Z,57.40
2018-04-02T08:59:38.829Z,56.90
2018-04-02T09:00:38.565Z,58.50
2018-04-02T09:01:39.577Z,58.20
2018-04-02T09:02:39.237Z,56.70
2018-04-02T09:03:39.246Z,57.60
2018-04-02T09:04:38.862Z,56.60
2018-04-02T09:05:39.013Z,56.60
2018-04-02T09:06:39.188Z,56.60
2018-04-02T09:07:59.420Z,56.30
2018-04-02T09:09:42.232Z,56.50
2018-04-02T09:10:42.653Z,55.90
2018-04-02T09:11:42.662Z,58.80
2018-04-02T09:12:42.660Z,58.40
2018-04-02T09:13:42.286Z,57.50
2018-04-02T09:14:42.387Z,58.00
2018-04-02T09:15:41.777Z,58.30
2018-04-02T09:16:42.904Z,56.90
2018-04-02T09:17:42.619Z,56.40
2018-04-02T09:18:42.601Z,57.00
2018-04-02T09:19:42.637Z,58.60
2018-04-02T09:20:42.046Z,56.90
2018-04-02T09:22:03.582Z,57.50
2018-04-02T09:23:04.469Z,58.10
2018-04-02T09:24:04.596Z,57.30
2018-04-02T09:25:26.138Z,58.50
2018-04-02T09:26:26.008Z,56.20
2018-04-02T09:27:26.180Z,56.30
2018-04-02T09:28:26.382Z,57.90
2018-04-02T09:29:25.986Z,58.90
2018-04-02T09:30:25.654Z,58.30
2018-04-02T09:31:26.107Z,58.20
2018-04-02T09:32:26.185Z,57.30
2018-04-02T09:33:26.229Z,56.30
2018-04-02T09:34:25.949Z,54.80
2018-04-02T09:35:25.745Z,55.90
2018-04-02T09:36:26.527Z,55.10
2018-04-02T09:37:26.111Z,56.10
2018-04-02T09:38:25.753Z,54.40
2018-04-02T09:39:46.779Z,53.40
2018-04-02T09:40:47.838Z,51.70
2018-04-02T09:41:46.569Z,52.20
2018-04-02T09:42:47.675Z,52.20
2018-04-02T09:43:47.440Z,51.60
2018-04-02T09:44:47.472Z,51.80
2018-04-02T09:45:47.182Z,51.90
2018-04-02T09:46:47.109Z,50.70
2018-04-02T09:47:46.691Z,52.00
2018-04-02T09:48:46.785Z,50.50
2018-04-02T09:49:47.296Z,52.30
2018-04-02T09:50:47.225Z,49.80
2018-04-02T09:51:46.791Z,51.10
2018-04-02T09:52:46.474Z,51.80
2018-04-02T09:53:47.125Z,52.80
2018-04-02T09:54:46.855Z,52.80
2018-04-02T09:56:07.453Z,51.50
2018-04-02T09:57:29.943Z,49.50
2018-04-02T09:58:30.118Z,45.20
2018-04-02T09:59:29.884Z,47.00
2018-04-02T10:00:29.995Z,46.60
2018-04-02T10:01:50.920Z,46.30
2018-04-02T10:03:33.465Z,46.00
2018-04-02T10:04:56.225Z,45.80
2018-04-02T10:05:56.062Z,47.90
2018-04-02T10:06:56.920Z,47.20
2018-04-02T10:07:56.940Z,48.50
2018-04-02T10:08:56.790Z,47.10
2018-04-02T10:09:56.670Z,45.10
2018-04-02T10:10:56.715Z,47.30
2018-04-02T10:11:56.787Z,46.10
2018-04-02T10:12:56.802Z,47.40
2018-04-02T10:13:56.703Z,49.60
2018-04-02T10:14:56.223Z,49.70
2018-04-02T10:16:38.413Z,48.50
2018-04-02T10:17:38.952Z,48.00
2018-04-02T10:18:59.887Z,41.60
2018-04-02T10:19:59.969Z,39.60
2018-04-02T10:20:59.652Z,38.10
2018-04-02T10:22:00.101Z,39.20
2018-04-02T10:22:59.981Z,40.80
2018-04-02T10:24:00.144Z,37.40
2018-04-02T10:24:59.953Z,39.60
2018-04-02T10:26:20.851Z,37.50
2018-04-02T10:27:21.681Z,40.60
2018-04-02T10:28:21.516Z,39.40
2018-04-02T10:29:42.861Z,40.90
2018-04-02T10:30:43.045Z,40.20
2018-04-02T10:31:43.156Z,43.50
2018-04-02T10:32:42.819Z,41.80
2018-04-02T10:33:42.608Z,41.00
2018-04-02T10:34:43.805Z,39.60
2018-04-02T10:35:45.458Z,40.30
2018-04-02T10:36:43.565Z,38.30
2018-04-02T10:37:43.811Z,37.80
2018-04-02T10:38:44.938Z,37.80
2018-04-02T10:39:42.706Z,35.50
2018-04-02T10:40:44.914Z,38.10
2018-04-02T10:42:24.757Z,39.80
2018-04-02T10:43:24.681Z,40.00
2018-04-02T10:44:24.921Z,39.70
2018-04-02T10:45:46.598Z,38.00
2018-04-02T10:46:47.632Z,37.10
2018-04-02T10:47:47.474Z,38.20
2018-04-02T10:48:47.463Z,36.00
2018-04-02T10:49:47.190Z,34.60
2018-04-02T10:50:48.111Z,34.70
2018-04-02T10:52:07.755Z,35.20
2018-04-02T10:53:08.088Z,34.40
2018-04-02T10:54:08.290Z,35.30
2018-04-02T10:55:08.111Z,33.80
2018-04-02T10:56:07.791Z,32.70
2018-04-02T10:57:30.234Z,33.50
2018-04-02T10:58:31.614Z,32.90
2018-04-02T10:59:30.151Z,32.40
2018-04-02T11:00:31.790Z,29.50
2018-04-02T11:01:52.254Z,28.30
2018-04-02T11:02:52.467Z,27.80
2018-04-02T11:03:58.138Z,29.80
2018-04-02T11:04:52.305Z,29.40
2018-04-02T11:05:52.505Z,31.50
2018-04-02T11:06:52.391Z,30.60
2018-04-02T11:07:52.442Z,30.70
2018-04-02T11:08:52.207Z,30.20
2018-04-02T11:09:51.937Z,30.60
2018-04-02T11:10:52.900Z,31.00
2018-04-02T11:11:52.990Z,31.00
2018-04-02T11:12:52.222Z,29.60
2018-04-02T11:13:52.429Z,31.10
2018-04-02T11:14:52.216Z,30.70
2018-04-02T11:15:52.002Z,29.00
2018-04-02T11:16:51.615Z,28.30
2018-04-02T11:17:52.574Z,28.90
2018-04-02T11:18:52.669Z,30.10
2018-04-02T11:19:52.792Z,29.50
2018-04-02T11:20:52.755Z,28.80
2018-04-02T11:21:52.366Z,29.90
2018-04-02T11:22:52.210Z,30.70
2018-04-02T11:23:52.420Z,31.60
2018-04-02T11:24:52.897Z,31.00
2018-04-02T11:25:53.063Z,29.20
2018-04-02T11:26:51.746Z,29.50
2018-04-02T11:27:52.709Z,29.70
2018-04-02T11:28:52.540Z,28.40
2018-04-02T11:29:52.658Z,29.40
2018-04-02T11:30:52.632Z,30.60
2018-04-02T11:31:52.671Z,31.10
2018-04-02T11:32:52.767Z,30.80
2018-04-02T11:33:52.566Z,32.30
2018-04-02T11:34:52.046Z,31.00
2018-04-02T11:35:51.629Z,30.40
2018-04-02T11:37:13.930Z,32.00
2018-04-02T11:38:14.019Z,31.40
2018-04-02T11:39:35.276Z,32.40
2018-04-02T11:40:35.771Z,31.70
2018-04-02T11:41:35.692Z,31.20
2018-04-02T11:42:57.654Z,30.60
2018-04-02T11:43:57.538Z,31.80
2018-04-02T11:44:57.173Z,31.60
2018-04-02T11:45:57.199Z,30.50
2018-04-02T11:46:57.363Z,31.20
2018-04-02T11:47:57.724Z,31.80
2018-04-02T11:48:57.650Z,30.50
2018-04-02T11:49:57.796Z,31.20
2018-04-02T11:50:58.212Z,29.70
2018-04-02T11:51:56.947Z,28.70
2018-04-02T11:53:18.489Z,29.40
2018-04-02T11:54:19.661Z,30.40
2018-04-02T11:55:20.805Z,29.90
2018-04-02T11:56:19.671Z,28.20
2018-04-02T11:57:18.596Z,26.90
2018-04-02T11:58:19.498Z,27.90
2018-04-02T11:59:19.406Z,27.70
2018-04-02T12:00:19.160Z,26.50
2018-04-02T12:01:19.342Z,26.50
2018-04-02T12:02:18.953Z,26.80
2018-04-02T12:03:19.018Z,27.20
2018-04-02T12:04:39.770Z,27.20
2018-04-02T12:05:40.650Z,26.40
2018-04-02T12:06:40.940Z,26.60
2018-04-02T12:08:01.027Z,26.80
2018-04-02T12:09:00.666Z,26.00
2018-04-02T12:10:01.310Z,26.50
2018-04-02T12:11:01.650Z,25.90
2018-04-02T12:12:01.686Z,24.60
2018-04-02T12:13:01.442Z,24.90
2018-04-02T12:14:01.318Z,25.60
2018-04-02T12:15:22.566Z,23.10
2018-04-02T12:16:23.117Z,23.10
2018-04-02T12:17:23.179Z,23.70
2018-04-02T12:18:22.908Z,25.10
2018-04-02T12:19:22.881Z,24.20
2018-04-02T12:21:04.622Z,23.60
2018-04-02T12:22:04.691Z,22.70
2018-04-02T12:23:04.323Z,22.80
2018-04-02T12:24:26.856Z,23.10
2018-04-02T12:25:27.965Z,22.10
2018-04-02T12:26:49.413Z,22.60
2018-04-02T12:27:49.685Z,21.70
2018-04-02T12:28:49.434Z,21.40
2018-04-02T12:29:49.777Z,22.40
2018-04-02T12:30:49.753Z,22.10
2018-04-02T12:31:49.523Z,21.90
2018-04-02T12:32:49.608Z,21.90
2018-04-02T12:33:50.149Z,21.70
2018-04-02T12:34:49.885Z,23.30
2018-04-02T12:35:49.871Z,22.20
2018-04-02T12:37:11.096Z,21.40
2018-04-02T12:38:11.982Z,21.30
2018-04-02T12:39:11.667Z,22.10
2018-04-02T12:40:11.544Z,20.90
2018-04-02T12:41:12.204Z,20.80
2018-04-02T12:42:33.198Z,21.00
2018-04-02T12:43:33.494Z,21.00
2018-04-02T12:44:54.853Z,20.80
2018-04-02T12:45:55.232Z,21.80
2018-04-02T12:47:37.813Z,22.50
2018-04-02T12:48:37.765Z,20.50
2018-04-02T12:49:37.692Z,21.60
2018-04-02T12:50:37.591Z,20.80
2018-04-02T12:51:37.671Z,22.70
2018-04-02T12:52:38.181Z,20.60
2018-04-02T12:53:38.761Z,20.90
2018-04-02T12:54:37.797Z,21.60
2018-04-02T12:55:38.041Z,22.80
2018-04-02T12:56:59.999Z,22.20
2018-04-02T12:58:01.109Z,21.10
2018-04-02T12:59:01.763Z,22.80
2018-04-02T13:00:00.926Z,20.00
2018-04-02T13:01:01.272Z,20.30
2018-04-02T13:02:00.319Z,18.80
2018-04-02T13:03:00.160Z,19.10
2018-04-02T13:04:00.237Z,18.20
2018-04-02T13:06:02.823Z,19.10
2018-04-02T13:07:03.797Z,19.50
2018-04-02T13:08:04.242Z,20.30
2018-04-02T13:09:03.273Z,19.50
2018-04-02T13:10:03.189Z,20.10
2018-04-02T13:11:03.432Z,20.00
2018-04-02T13:12:03.594Z,20.50
2018-04-02T13:13:03.534Z,19.60
2018-04-02T13:14:03.894Z,19.60
2018-04-02T13:15:26.362Z,17.80
2018-04-02T13:16:26.458Z,20.30
2018-04-02T13:17:26.266Z,18.10
2018-04-02T13:18:47.988Z,17.80
2018-04-02T13:19:49.004Z,18.50
2018-04-02T13:20:48.181Z,18.30
2018-04-02T13:21:48.181Z,17.40
2018-04-02T13:23:31.166Z,17.60
2018-04-02T13:24:31.504Z,17.10
2018-04-02T13:25:31.525Z,17.20
2018-04-02T13:26:31.744Z,17.90
2018-04-02T13:27:31.696Z,15.70
2018-04-02T13:28:30.723Z,16.10
2018-04-02T13:29:53.650Z,16.70
2018-04-02T13:30:53.826Z,16.80
2018-04-02T13:32:15.070Z,17.90
2018-04-02T13:33:15.994Z,17.50
2018-04-02T13:34:16.286Z,18.10
2018-04-02T13:35:36.834Z,16.60
2018-04-02T13:36:37.894Z,16.20